sensor_id;sensor_type;location;lat;lon;timestamp;pressure;altitude;pressure_sealevel;temperature;humidity
31346;BME280;21711;49.708;18.568;2023-06-10T00:02:26;97070.56;;;17.65;100.00
31346;BME280;21711;49.708;18.568;2023-06-10T00:04:54;97071.34;;;17.66;100.00
31346;BME280;21711;49.708;18.568;2023-06-10T00:07:22;97073.09;;;17.61;100.00
31346;BME280;21711;49.708;18.568;2023-06-10T00:09:50;97076.94;;;17.52;100.00
31346;BME280;21711;49.708;18.568;2023-06-10T00:12:18;97080.34;;;17.61;100.00
31346;BME280;21711;49.708;18.568;2023-06-10T00:14:47;97079.97;;;17.71;100.00
31346;BME280;21711;49.708;18.568;2023-06-10T00:17:17;97083.09;;;17.73;100.00
31346;BME280;21711;49.708;18.568;2023-06-10T00:19:45;97078.84;;;17.72;100.00
31346;BME280;21711;49.708;18.568;2023-06-10T00:22:14;97083.88;;;17.74;100.00
31346;BME280;21711;49.708;18.568;2023-06-10T00:24:41;97078.72;;;17.69;100.00
31346;BME280;21711;49.708;18.568;2023-06-10T00:27:09;97076.88;;;17.60;100.00
31346;BME280;21711;49.708;18.568;2023-06-10T00:29:37;97082.94;;;17.70;100.00
31346;BME280;21711;49.708;18.568;2023-06-10T00:32:06;97082.41;;;17.55;100.00
31346;BME280;21711;49.708;18.568;2023-06-10T00:34:34;97081.47;;;17.51;100.00
31346;BME280;21711;49.708;18.568;2023-06-10T00:37:03;97080.22;;;17.48;100.00
31346;BME280;21711;49.708;18.568;2023-06-10T00:39:30;97086.19;;;17.54;100.00
31346;BME280;21711;49.708;18.568;2023-06-10T00:41:58;97090.94;;;17.48;100.00
31346;BME280;21711;49.708;18.568;2023-06-10T00:44:26;97083.25;;;17.47;100.00
31346;BME280;21711;49.708;18.568;2023-06-10T00:46:53;97087.00;;;17.46;100.00
31346;BME280;21711;49.708;18.568;2023-06-10T00:49:23;97082.28;;;17.52;100.00
31346;BME280;21711;49.708;18.568;2023-06-10T00:51:52;97084.50;;;17.50;100.00
31346;BME280;21711;49.708;18.568;2023-06-10T00:54:20;97087.16;;;17.50;100.00
31346;BME280;21711;49.708;18.568;2023-06-10T00:56:48;97084.69;;;17.44;100.00
31346;BME280;21711;49.708;18.568;2023-06-10T00:59:17;97085.25;;;17.50;100.00
31346;BME280;21711;49.708;18.568;2023-06-10T01:01:45;97093.59;;;17.48;100.00
31346;BME280;21711;49.708;18.568;2023-06-10T01:04:14;97090.59;;;17.50;100.00
31346;BME280;21711;49.708;18.568;2023-06-10T01:07:17;97092.31;;;17.55;100.00
31346;BME280;21711;49.708;18.568;2023-06-10T01:12:33;97088.84;;;17.63;100.00
31346;BME280;21711;49.708;18.568;2023-06-10T01:15:02;97088.34;;;17.61;100.00
31346;BME280;21711;49.708;18.568;2023-06-10T01:17:29;97092.09;;;17.69;100.00
31346;BME280;21711;49.708;18.568;2023-06-10T01:19:57;97092.66;;;17.53;100.00
31346;BME280;21711;49.708;18.568;2023-06-10T01:22:27;97089.03;;;17.49;100.00
31346;BME280;21711;49.708;18.568;2023-06-10T01:25:04;97092.03;;;17.47;100.00
31346;BME280;21711;49.708;18.568;2023-06-10T01:27:34;97087.50;;;17.48;100.00
31346;BME280;21711;49.708;18.568;2023-06-10T01:30:18;97094.22;;;17.54;100.00
31346;BME280;21711;49.708;18.568;2023-06-10T01:32:51;97096.88;;;17.54;100.00
31346;BME280;21711;49.708;18.568;2023-06-10T01:35:23;97096.28;;;17.48;100.00
31346;BME280;21711;49.708;18.568;2023-06-10T01:37:54;97090.41;;;17.64;100.00
31346;BME280;21711;49.708;18.568;2023-06-10T01:40:23;97088.50;;;17.65;100.00
31346;BME280;21711;49.708;18.568;2023-06-10T01:42:53;97097.44;;;17.69;100.00
31346;BME280;21711;49.708;18.568;2023-06-10T01:45:20;97093.56;;;17.57;100.00
31346;BME280;21711;49.708;18.568;2023-06-10T01:47:47;97090.09;;;17.57;100.00
31346;BME280;21711;49.708;18.568;2023-06-10T01:50:15;97091.94;;;17.65;100.00
31346;BME280;21711;49.708;18.568;2023-06-10T01:52:43;97098.25;;;17.60;100.00
31346;BME280;21711;49.708;18.568;2023-06-10T01:55:11;97096.25;;;17.57;100.00
31346;BME280;21711;49.708;18.568;2023-06-10T01:57:39;97100.53;;;17.50;100.00
31346;BME280;21711;49.708;18.568;2023-06-10T02:00:08;97100.66;;;17.53;100.00
31346;BME280;21711;49.708;18.568;2023-06-10T02:02:40;97096.97;;;17.67;100.00
31346;BME280;21711;49.708;18.568;2023-06-10T02:05:08;97097.91;;;17.71;100.00
31346;BME280;21711;49.708;18.568;2023-06-10T02:07:36;97103.44;;;17.66;100.00
31346;BME280;21711;49.708;18.568;2023-06-10T02:10:05;97103.09;;;17.67;100.00
31346;BME280;21711;49.708;18.568;2023-06-10T02:12:33;97110.72;;;17.56;100.00
31346;BME280;21711;49.708;18.568;2023-06-10T02:15:00;97114.97;;;17.57;100.00
31346;BME280;21711;49.708;18.568;2023-06-10T02:17:29;97110.22;;;17.63;100.00
31346;BME280;21711;49.708;18.568;2023-06-10T02:19:56;97102.66;;;17.65;100.00
31346;BME280;21711;49.708;18.568;2023-06-10T02:22:24;97111.72;;;17.73;100.00
31346;BME280;21711;49.708;18.568;2023-06-10T02:24:51;97112.38;;;17.70;100.00
31346;BME280;21711;49.708;18.568;2023-06-10T02:27:18;97110.03;;;17.68;100.00
31346;BME280;21711;49.708;18.568;2023-06-10T02:29:47;97110.78;;;17.78;100.00
31346;BME280;21711;49.708;18.568;2023-06-10T02:32:15;97115.69;;;17.67;100.00
31346;BME280;21711;49.708;18.568;2023-06-10T02:34:43;97113.34;;;17.65;100.00
31346;BME280;21711;49.708;18.568;2023-06-10T02:37:11;97111.97;;;17.59;100.00
31346;BME280;21711;49.708;18.568;2023-06-10T02:39:38;97109.75;;;17.61;100.00
31346;BME280;21711;49.708;18.568;2023-06-10T02:42:09;97107.38;;;17.59;100.00
31346;BME280;21711;49.708;18.568;2023-06-10T02:44:38;97110.06;;;17.59;100.00
31346;BME280;21711;49.708;18.568;2023-06-10T02:47:08;97106.97;;;17.48;100.00
31346;BME280;21711;49.708;18.568;2023-06-10T02:49:36;97112.31;;;17.48;100.00
31346;BME280;21711;49.708;18.568;2023-06-10T02:52:04;97110.13;;;17.51;100.00
31346;BME280;21711;49.708;18.568;2023-06-10T02:54:31;97106.34;;;17.52;100.00
31346;BME280;21711;49.708;18.568;2023-06-10T02:56:59;97120.94;;;17.54;100.00
31346;BME280;21711;49.708;18.568;2023-06-10T02:59:28;97118.41;;;17.58;100.00
31346;BME280;21711;49.708;18.568;2023-06-10T03:01:56;97119.31;;;17.62;100.00
31346;BME280;21711;49.708;18.568;2023-06-10T03:04:25;97115.69;;;17.67;100.00
31346;BME280;21711;49.708;18.568;2023-06-10T03:07:00;97120.31;;;17.57;100.00
31346;BME280;21711;49.708;18.568;2023-06-10T03:09:33;97120.94;;;17.54;100.00
31346;BME280;21711;49.708;18.568;2023-06-10T03:12:03;97114.66;;;17.59;100.00
31346;BME280;21711;49.708;18.568;2023-06-10T03:14:35;97127.16;;;17.67;100.00
31346;BME280;21711;49.708;18.568;2023-06-10T03:17:04;97124.31;;;17.72;100.00
31346;BME280;21711;49.708;18.568;2023-06-10T03:19:33;97124.50;;;17.67;100.00
31346;BME280;21711;49.708;18.568;2023-06-10T03:22:12;97120.94;;;17.54;100.00
31346;BME280;21711;49.708;18.568;2023-06-10T03:24:46;97121.81;;;17.67;100.00
31346;BME280;21711;49.708;18.568;2023-06-10T03:27:18;97119.00;;;17.64;100.00
31346;BME280;21711;49.708;18.568;2023-06-10T03:29:49;97114.97;;;17.57;100.00
31346;BME280;21711;49.708;18.568;2023-06-10T03:32:17;97117.38;;;17.41;100.00
31346;BME280;21711;49.708;18.568;2023-06-10T03:34:44;97119.44;;;17.35;100.00
31346;BME280;21711;49.708;18.568;2023-06-10T03:37:13;97118.84;;;17.30;100.00
31346;BME280;21711;49.708;18.568;2023-06-10T03:39:42;97117.69;;;17.40;100.00
31346;BME280;21711;49.708;18.568;2023-06-10T03:42:09;97115.84;;;17.31;100.00
31346;BME280;21711;49.708;18.568;2023-06-10T03:44:37;97122.88;;;17.45;100.00
31346;BME280;21711;49.708;18.568;2023-06-10T03:47:05;97121.63;;;17.42;100.00
31346;BME280;21711;49.708;18.568;2023-06-10T03:49:33;97132.59;;;17.50;100.00
31346;BME280;21711;49.708;18.568;2023-06-10T03:52:02;97130.25;;;17.48;100.00
31346;BME280;21711;49.708;18.568;2023-06-10T03:54:29;97133.56;;;17.45;100.00
31346;BME280;21711;49.708;18.568;2023-06-10T03:56:58;97132.88;;;17.57;100.00
31346;BME280;21711;49.708;18.568;2023-06-10T03:59:26;97132.88;;;17.57;100.00
31346;BME280;21711;49.708;18.568;2023-06-10T04:01:53;97136.66;;;17.56;100.00
31346;BME280;21711;49.708;18.568;2023-06-10T04:04:21;97132.69;;;17.62;100.00
31346;BME280;21711;49.708;18.568;2023-06-10T04:06:48;97135.13;;;17.46;100.00
31346;BME280;21711;49.708;18.568;2023-06-10T04:09:16;97127.94;;;17.38;100.00
31346;BME280;21711;49.708;18.568;2023-06-10T04:11:44;97125.03;;;17.52;100.00
31346;BME280;21711;49.708;18.568;2023-06-10T04:14:11;97132.88;;;17.57;100.00
31346;BME280;21711;49.708;18.568;2023-06-10T04:16:40;97132.56;;;17.58;100.00
31346;BME280;21711;49.708;18.568;2023-06-10T04:19:10;97125.53;;;17.54;100.00
31346;BME280;21711;49.708;18.568;2023-06-10T04:21:38;97130.69;;;17.59;100.00
31346;BME280;21711;49.708;18.568;2023-06-10T04:24:05;97133.75;;;17.70;100.00
31346;BME280;21711;49.708;18.568;2023-06-10T04:26:35;97128.13;;;17.63;100.00
31346;BME280;21711;49.708;18.568;2023-06-10T04:29:03;97125.78;;;17.61;100.00
31346;BME280;21711;49.708;18.568;2023-06-10T04:31:31;97133.31;;;17.68;100.00
31346;BME280;21711;49.708;18.568;2023-06-10T04:34:00;97131.13;;;17.61;100.00
31346;BME280;21711;49.708;18.568;2023-06-10T04:36:28;97123.28;;;17.56;100.00
31346;BME280;21711;49.708;18.568;2023-06-10T04:38:57;97123.97;;;17.74;100.00
31346;BME280;21711;49.708;18.568;2023-06-10T04:41:25;97128.09;;;17.71;100.00
31346;BME280;21711;49.708;18.568;2023-06-10T04:43:54;97135.41;;;17.83;100.00
31346;BME280;21711;49.708;18.568;2023-06-10T04:46:22;97125.72;;;17.70;100.00
31346;BME280;21711;49.708;18.568;2023-06-10T04:48:50;97127.50;;;17.66;100.00
31346;BME280;21711;49.708;18.568;2023-06-10T04:51:17;97121.84;;;17.88;100.00
31346;BME280;21711;49.708;18.568;2023-06-10T04:53:44;97129.81;;;17.76;100.00
31346;BME280;21711;49.708;18.568;2023-06-10T04:56:12;97126.34;;;17.75;100.00
31346;BME280;21711;49.708;18.568;2023-06-10T04:58:39;97132.56;;;17.88;100.00
31346;BME280;21711;49.708;18.568;2023-06-10T05:01:07;97131.38;;;18.07;100.00
31346;BME280;21711;49.708;18.568;2023-06-10T05:03:34;97129.38;;;18.25;100.00
31346;BME280;21711;49.708;18.568;2023-06-10T05:06:02;97130.88;;;17.84;100.00
31346;BME280;21711;49.708;18.568;2023-06-10T05:08:29;97136.25;;;18.05;100.00
31346;BME280;21711;49.708;18.568;2023-06-10T05:10:56;97138.44;;;18.12;100.00
31346;BME280;21711;49.708;18.568;2023-06-10T05:13:25;97139.56;;;18.11;100.00
31346;BME280;21711;49.708;18.568;2023-06-10T05:15:52;97142.88;;;18.08;100.00
31346;BME280;21711;49.708;18.568;2023-06-10T05:18:20;97147.75;;;18.27;100.00
31346;BME280;21711;49.708;18.568;2023-06-10T05:20:48;97144.00;;;18.28;100.00
31346;BME280;21711;49.708;18.568;2023-06-10T05:23:16;97148.22;;;18.29;100.00
31346;BME280;21711;49.708;18.568;2023-06-10T05:25:43;97149.16;;;18.33;100.00
31346;BME280;21711;49.708;18.568;2023-06-10T05:28:11;97152.22;;;18.44;100.00
31346;BME280;21711;49.708;18.568;2023-06-10T05:30:41;97153.97;;;18.61;100.00
31346;BME280;21711;49.708;18.568;2023-06-10T05:33:09;97150.97;;;18.63;100.00
31346;BME280;21711;49.708;18.568;2023-06-10T05:35:36;97147.31;;;18.46;100.00
31346;BME280;21711;49.708;18.568;2023-06-10T05:38:04;97165.09;;;18.30;100.00
31346;BME280;21711;49.708;18.568;2023-06-10T05:40:32;97151.03;;;18.33;100.00
31346;BME280;21711;49.708;18.568;2023-06-10T05:42:59;97152.94;;;18.32;100.00
31346;BME280;21711;49.708;18.568;2023-06-10T05:45:27;97145.44;;;18.47;100.00
31346;BME280;21711;49.708;18.568;2023-06-10T05:47:55;97149.34;;;18.49;100.00
31346;BME280;21711;49.708;18.568;2023-06-10T05:50:24;97144.78;;;18.84;100.00
31346;BME280;21711;49.708;18.568;2023-06-10T05:52:51;97154.84;;;19.08;100.00
31346;BME280;21711;49.708;18.568;2023-06-10T05:55:20;97153.25;;;19.07;100.00
31346;BME280;21711;49.708;18.568;2023-06-10T05:57:59;97151.16;;;19.13;100.00
31346;BME280;21711;49.708;18.568;2023-06-10T06:00:27;97155.78;;;18.70;100.00
31346;BME280;21711;49.708;18.568;2023-06-10T06:02:55;97162.41;;;18.85;100.00
31346;BME280;21711;49.708;18.568;2023-06-10T06:05:25;97161.06;;;18.78;100.00
31346;BME280;21711;49.708;18.568;2023-06-10T06:07:52;97162.16;;;18.99;100.00
31346;BME280;21711;49.708;18.568;2023-06-10T06:10:20;97157.56;;;18.99;100.00
31346;BME280;21711;49.708;18.568;2023-06-10T06:12:47;97164.38;;;18.97;100.00
31346;BME280;21711;49.708;18.568;2023-06-10T06:15:15;97168.28;;;18.99;100.00
31346;BME280;21711;49.708;18.568;2023-06-10T06:17:42;97168.59;;;18.98;100.00
31346;BME280;21711;49.708;18.568;2023-06-10T06:20:10;97169.06;;;19.00;100.00
31346;BME280;21711;49.708;18.568;2023-06-10T06:22:37;97166.91;;;19.14;100.00
31346;BME280;21711;49.708;18.568;2023-06-10T06:25:05;97169.41;;;19.32;100.00
31346;BME280;21711;49.708;18.568;2023-06-10T06:27:33;97176.19;;;19.17;100.00
31346;BME280;21711;49.708;18.568;2023-06-10T06:30:01;97179.19;;;19.15;100.00
31346;BME280;21711;49.708;18.568;2023-06-10T06:32:29;97180.31;;;19.14;100.00
31346;BME280;21711;49.708;18.568;2023-06-10T06:34:57;97179.41;;;19.10;100.00
31346;BME280;21711;49.708;18.568;2023-06-10T06:37:26;97180.91;;;18.99;100.00
31346;BME280;21711;49.708;18.568;2023-06-10T06:40:07;97188.50;;;19.30;100.00
31346;BME280;21711;49.708;18.568;2023-06-10T06:42:35;97188.25;;;19.23;100.00
31346;BME280;21711;49.708;18.568;2023-06-10T06:45:11;97187.38;;;19.31;100.00
31346;BME280;21711;49.708;18.568;2023-06-10T06:47:39;97189.47;;;19.13;100.00
31346;BME280;21711;49.708;18.568;2023-06-10T06:50:07;97189.38;;;19.01;100.00
31346;BME280;21711;49.708;18.568;2023-06-10T06:52:34;97192.16;;;19.13;100.00
31346;BME280;21711;49.708;18.568;2023-06-10T06:55:02;97190.91;;;18.89;100.00
31346;BME280;21711;49.708;18.568;2023-06-10T06:57:30;97191.22;;;19.09;100.00
31346;BME280;21711;49.708;18.568;2023-06-10T06:59:57;97190.69;;;19.75;100.00
31346;BME280;21711;49.708;18.568;2023-06-10T07:02:24;97193.84;;;20.55;100.00
31346;BME280;21711;49.708;18.568;2023-06-10T07:04:52;97194.38;;;21.79;100.00
31346;BME280;21711;49.708;18.568;2023-06-10T07:07:22;97197.84;;;22.67;100.00
31346;BME280;21711;49.708;18.568;2023-06-10T07:09:50;97198.78;;;23.18;100.00
31346;BME280;21711;49.708;18.568;2023-06-10T07:12:17;97208.47;;;23.66;100.00
31346;BME280;21711;49.708;18.568;2023-06-10T07:14:45;97194.69;;;23.98;100.00
31346;BME280;21711;49.708;18.568;2023-06-10T07:17:13;97203.19;;;23.50;100.00
31346;BME280;21711;49.708;18.568;2023-06-10T07:19:40;97201.31;;;22.68;100.00
31346;BME280;21711;49.708;18.568;2023-06-10T07:22:08;97200.16;;;21.97;100.00
31346;BME280;21711;49.708;18.568;2023-06-10T07:24:36;97208.31;;;21.52;100.00
31346;BME280;21711;49.708;18.568;2023-06-10T07:27:03;97204.44;;;21.50;100.00
31346;BME280;21711;49.708;18.568;2023-06-10T07:29:31;97206.97;;;21.14;100.00
31346;BME280;21711;49.708;18.568;2023-06-10T07:31:59;97196.53;;;20.84;100.00
31346;BME280;21711;49.708;18.568;2023-06-10T07:34:26;97211.78;;;20.92;100.00
31346;BME280;21711;49.708;18.568;2023-06-10T07:36:53;97206.59;;;20.99;100.00
31346;BME280;21711;49.708;18.568;2023-06-10T07:39:21;97208.38;;;21.24;100.00
31346;BME280;21711;49.708;18.568;2023-06-10T07:41:49;97206.25;;;21.46;100.00
31346;BME280;21711;49.708;18.568;2023-06-10T07:44:17;97203.25;;;21.79;100.00
31346;BME280;21711;49.708;18.568;2023-06-10T07:46:44;97213.53;;;22.10;100.00
31346;BME280;21711;49.708;18.568;2023-06-10T07:49:12;97208.19;;;22.65;100.00
31346;BME280;21711;49.708;18.568;2023-06-10T07:51:40;97223.19;;;23.45;100.00
31346;BME280;21711;49.708;18.568;2023-06-10T07:54:07;97221.69;;;23.48;100.00
31346;BME280;21711;49.708;18.568;2023-06-10T07:56:35;97223.41;;;23.17;100.00
31346;BME280;21711;49.708;18.568;2023-06-10T07:59:02;97225.66;;;22.91;100.00
31346;BME280;21711;49.708;18.568;2023-06-10T08:01:30;97215.22;;;22.34;100.00
31346;BME280;21711;49.708;18.568;2023-06-10T08:03:58;97219.50;;;22.19;100.00
31346;BME280;21711;49.708;18.568;2023-06-10T08:06:26;97218.13;;;22.09;100.00
31346;BME280;21711;49.708;18.568;2023-06-10T08:08:53;97212.34;;;21.91;100.00
31346;BME280;21711;49.708;18.568;2023-06-10T08:11:21;97225.38;;;21.73;100.00
31346;BME280;21711;49.708;18.568;2023-06-10T08:13:48;97228.06;;;21.73;100.00
31346;BME280;21711;49.708;18.568;2023-06-10T08:16:16;97222.19;;;21.38;100.00
31346;BME280;21711;49.708;18.568;2023-06-10T08:18:43;97230.03;;;21.92;100.00
31346;BME280;21711;49.708;18.568;2023-06-10T08:21:11;97229.00;;;22.13;100.00
31346;BME280;21711;49.708;18.568;2023-06-10T08:23:38;97230.09;;;22.64;100.00
31346;BME280;21711;49.708;18.568;2023-06-10T08:26:06;97238.28;;;23.50;100.00
31346;BME280;21711;49.708;18.568;2023-06-10T08:28:33;97232.72;;;23.62;100.00
31346;BME280;21711;49.708;18.568;2023-06-10T08:31:01;97231.44;;;24.30;100.00
31346;BME280;21711;49.708;18.568;2023-06-10T08:33:28;97232.91;;;25.16;100.00
31346;BME280;21711;49.708;18.568;2023-06-10T08:35:55;97240.13;;;25.84;100.00
31346;BME280;21711;49.708;18.568;2023-06-10T08:38:23;97235.66;;;26.81;100.00
31346;BME280;21711;49.708;18.568;2023-06-10T08:40:51;97238.97;;;27.44;100.00
31346;BME280;21711;49.708;18.568;2023-06-10T08:45:59;97237.66;;;26.20;100.00
31346;BME280;21711;49.708;18.568;2023-06-10T08:48:30;97239.75;;;24.75;100.00
31346;BME280;21711;49.708;18.568;2023-06-10T08:51:00;97232.94;;;23.77;100.00
31346;BME280;21711;49.708;18.568;2023-06-10T08:53:30;97234.56;;;23.58;100.00
31346;BME280;21711;49.708;18.568;2023-06-10T08:56:02;97235.47;;;23.66;100.00
31346;BME280;21711;49.708;18.568;2023-06-10T08:58:32;97229.22;;;23.85;100.00
31346;BME280;21711;49.708;18.568;2023-06-10T09:01:08;97237.44;;;24.43;100.00
31346;BME280;21711;49.708;18.568;2023-06-10T09:03:38;97238.63;;;28.01;100.00
31346;BME280;21711;49.708;18.568;2023-06-10T09:06:06;97249.31;;;28.81;84.59
31346;BME280;21711;49.708;18.568;2023-06-10T09:08:34;97229.50;;;26.87;92.52
31346;BME280;21711;49.708;18.568;2023-06-10T09:11:02;97235.03;;;27.16;93.38
31346;BME280;21711;49.708;18.568;2023-06-10T09:13:30;97223.16;;;26.50;94.54
31346;BME280;21711;49.708;18.568;2023-06-10T09:15:57;97242.88;;;27.73;91.60
31346;BME280;21711;49.708;18.568;2023-06-10T09:18:30;97236.84;;;28.91;87.17
31346;BME280;21711;49.708;18.568;2023-06-10T09:20:57;97244.16;;;30.56;81.24
31346;BME280;21711;49.708;18.568;2023-06-10T09:23:25;97250.31;;;30.64;60.50
31346;BME280;21711;49.708;18.568;2023-06-10T09:25:58;97233.75;;;28.85;63.29
31346;BME280;21711;49.708;18.568;2023-06-10T09:28:25;97234.28;;;27.38;70.39
31346;BME280;21711;49.708;18.568;2023-06-10T09:31:06;97222.19;;;26.95;72.02
31346;BME280;21711;49.708;18.568;2023-06-10T09:33:38;97233.56;;;27.52;72.73
31346;BME280;21711;49.708;18.568;2023-06-10T09:36:06;97240.81;;;28.64;68.61
31346;BME280;21711;49.708;18.568;2023-06-10T09:38:35;97251.56;;;29.04;61.75
31346;BME280;21711;49.708;18.568;2023-06-10T09:41:03;97246.13;;;29.04;62.16
31346;BME280;21711;49.708;18.568;2023-06-10T09:43:45;97240.88;;;30.34;59.49
31346;BME280;21711;49.708;18.568;2023-06-10T09:46:18;97234.63;;;29.91;56.09
31346;BME280;21711;49.708;18.568;2023-06-10T09:48:47;97234.56;;;29.53;59.84
31346;BME280;21711;49.708;18.568;2023-06-10T09:51:15;97226.94;;;28.37;63.01
31346;BME280;21711;49.708;18.568;2023-06-10T09:53:51;97231.22;;;29.27;65.29
31346;BME280;21711;49.708;18.568;2023-06-10T09:56:19;97237.00;;;30.35;61.21
31346;BME280;21711;49.708;18.568;2023-06-10T09:58:46;97228.47;;;29.31;60.82
31346;BME280;21711;49.708;18.568;2023-06-10T10:01:15;97232.28;;;28.62;63.48
31346;BME280;21711;49.708;18.568;2023-06-10T10:03:49;97237.84;;;27.71;63.46
31346;BME280;21711;49.708;18.568;2023-06-10T10:06:18;97228.13;;;28.10;66.13
31346;BME280;21711;49.708;18.568;2023-06-10T10:08:50;97229.72;;;27.64;68.12
31346;BME280;21711;49.708;18.568;2023-06-10T10:11:20;97239.75;;;27.52;65.45
31346;BME280;21711;49.708;18.568;2023-06-10T10:13:53;97222.91;;;26.92;65.85
31346;BME280;21711;49.708;18.568;2023-06-10T10:16:28;97221.47;;;26.28;68.25
31346;BME280;21711;49.708;18.568;2023-06-10T10:19:08;97221.75;;;25.21;72.20
31346;BME280;21711;49.708;18.568;2023-06-10T10:21:44;97229.97;;;25.32;74.86
31346;BME280;21711;49.708;18.568;2023-06-10T10:24:26;97218.81;;;25.79;71.96
31346;BME280;21711;49.708;18.568;2023-06-10T10:26:59;97224.81;;;26.06;74.45
31346;BME280;21711;49.708;18.568;2023-06-10T10:29:38;97226.19;;;27.89;64.60
31346;BME280;21711;49.708;18.568;2023-06-10T10:32:07;97219.53;;;27.24;65.26
31346;BME280;21711;49.708;18.568;2023-06-10T10:34:43;97223.44;;;27.41;66.01
31346;BME280;21711;49.708;18.568;2023-06-10T10:37:17;97223.81;;;28.31;63.06
31346;BME280;21711;49.708;18.568;2023-06-10T10:39:45;97219.94;;;28.35;60.57
31346;BME280;21711;49.708;18.568;2023-06-10T10:42:14;97205.19;;;28.22;62.71
31346;BME280;21711;49.708;18.568;2023-06-10T10:44:42;97209.47;;;27.28;65.85
31346;BME280;21711;49.708;18.568;2023-06-10T10:47:10;97207.59;;;27.62;67.45
31346;BME280;21711;49.708;18.568;2023-06-10T10:49:38;97213.00;;;27.76;63.71
31346;BME280;21711;49.708;18.568;2023-06-10T10:52:11;97207.59;;;27.69;63.14
31346;BME280;21711;49.708;18.568;2023-06-10T10:54:45;97203.69;;;27.52;66.34
31346;BME280;21711;49.708;18.568;2023-06-10T10:57:23;97200.56;;;27.28;65.49
31346;BME280;21711;49.708;18.568;2023-06-10T10:59:56;97193.28;;;26.47;67.38
31346;BME280;21711;49.708;18.568;2023-06-10T11:02:45;97203.13;;;26.81;66.62
31346;BME280;21711;49.708;18.568;2023-06-10T11:05:16;97198.03;;;26.64;65.60
31346;BME280;21711;49.708;18.568;2023-06-10T11:08:02;97201.91;;;26.60;68.82
31346;BME280;21711;49.708;18.568;2023-06-10T11:10:41;97199.78;;;27.49;65.32
31346;BME280;21711;49.708;18.568;2023-06-10T11:13:15;97200.91;;;27.15;64.05
31346;BME280;21711;49.708;18.568;2023-06-10T11:15:50;97199.75;;;28.37;63.38
31346;BME280;21711;49.708;18.568;2023-06-10T11:18:30;97206.78;;;27.87;61.16
31346;BME280;21711;49.708;18.568;2023-06-10T11:21:04;97211.03;;;27.44;62.78
31346;BME280;21711;49.708;18.568;2023-06-10T11:23:41;97202.34;;;26.80;62.20
31346;BME280;21711;49.708;18.568;2023-06-10T11:31:29;97210.75;;;25.90;65.13
31346;BME280;21711;49.708;18.568;2023-06-10T11:34:03;97199.34;;;26.22;66.19
31346;BME280;21711;49.708;18.568;2023-06-10T11:36:36;97197.19;;;25.90;68.52
31346;BME280;21711;49.708;18.568;2023-06-10T11:39:05;97179.47;;;25.99;68.01
31346;BME280;21711;49.708;18.568;2023-06-10T11:41:35;97184.50;;;26.72;66.00
31346;BME280;21711;49.708;18.568;2023-06-10T11:44:10;97179.28;;;26.30;63.67
31346;BME280;21711;49.708;18.568;2023-06-10T11:46:41;97182.34;;;26.21;67.01
31346;BME280;21711;49.708;18.568;2023-06-10T11:49:12;97184.47;;;25.94;65.03
31346;BME280;21711;49.708;18.568;2023-06-10T11:51:41;97185.88;;;26.29;66.12
31346;BME280;21711;49.708;18.568;2023-06-10T11:54:17;97173.13;;;26.33;63.98
31346;BME280;21711;49.708;18.568;2023-06-10T11:56:46;97179.72;;;26.39;65.47
31346;BME280;21711;49.708;18.568;2023-06-10T11:59:14;97173.13;;;26.33;68.14
31346;BME280;21711;49.708;18.568;2023-06-10T12:01:44;97178.78;;;26.13;67.91
31346;BME280;21711;49.708;18.568;2023-06-10T12:04:15;97183.38;;;26.06;66.84
31346;BME280;21711;49.708;18.568;2023-06-10T12:06:51;97182.47;;;25.83;67.17
31346;BME280;21711;49.708;18.568;2023-06-10T12:09:24;97185.72;;;25.55;67.16
31346;BME280;21711;49.708;18.568;2023-06-10T12:12:01;97188.44;;;24.79;74.33
31346;BME280;21711;49.708;18.568;2023-06-10T12:14:59;97187.47;;;24.60;78.24
31346;BME280;21711;49.708;18.568;2023-06-10T12:20:00;97194.50;;;23.37;82.74
31346;BME280;21711;49.708;18.568;2023-06-10T12:22:40;97202.31;;;23.42;86.81
31346;BME280;21711;49.708;18.568;2023-06-10T12:25:09;97207.78;;;22.83;87.12
31346;BME280;21711;49.708;18.568;2023-06-10T12:27:40;97211.97;;;22.80;87.04
31346;BME280;21711;49.708;18.568;2023-06-10T12:30:08;97211.09;;;22.56;88.51
31346;BME280;21711;49.708;18.568;2023-06-10T12:32:45;97217.53;;;22.36;89.67
31346;BME280;21711;49.708;18.568;2023-06-10T12:35:17;97211.94;;;21.73;100.00
31346;BME280;21711;49.708;18.568;2023-06-10T12:38:02;97220.38;;;21.42;100.00
31346;BME280;21711;49.708;18.568;2023-06-10T12:40:37;97217.09;;;21.49;100.00
31346;BME280;21711;49.708;18.568;2023-06-10T12:43:06;97221.59;;;21.45;100.00
31346;BME280;21711;49.708;18.568;2023-06-10T12:45:39;97224.63;;;21.27;100.00
31346;BME280;21711;49.708;18.568;2023-06-10T12:48:24;97229.66;;;21.61;100.00
31346;BME280;21711;49.708;18.568;2023-06-10T12:50:57;97227.69;;;21.90;100.00
31346;BME280;21711;49.708;18.568;2023-06-10T12:53:26;97229.00;;;21.97;100.00
31346;BME280;21711;49.708;18.568;2023-06-10T12:55:54;97230.34;;;22.23;100.00
31346;BME280;21711;49.708;18.568;2023-06-10T12:58:22;97230.56;;;22.50;100.00
31346;BME280;21711;49.708;18.568;2023-06-10T13:00:50;97233.56;;;22.28;100.00
31346;BME280;21711;49.708;18.568;2023-06-10T13:03:20;97226.56;;;22.07;100.00
31346;BME280;21711;49.708;18.568;2023-06-10T13:05:48;97238.59;;;22.30;100.00
31346;BME280;21711;49.708;18.568;2023-06-10T13:08:15;97233.94;;;22.82;100.00
31346;BME280;21711;49.708;18.568;2023-06-10T13:10:43;97226.56;;;22.79;100.00